West Kingston, Rhode Island
Current Conditions -  °F | °C
As of 9:08 AM on Tuesday 27 Jan 2015 (Local Time) from KUUU Reporting Station
Haze Haze  
Wind Chill: -18°   Ceiling: 2200
Heat Index: -8°   Visibility: 0.75mi
Dew Point: -11°   Wind: 25mph
Humidity: 78%   Direction: 10°N
Pressure: 29.43"   Gusts: 46mph
Location:  41.48°N, 71.55°W
Report Text: KUUU 271408Z AUTO 01022G40KT 3/4SM HZ OVC022 M08/M11 A2943 RMK AO2 PK WND 02041/1358 T10781111 PWINO FZRANO $
Loading
Personal Weather Stations






























Interactive Weather Map New forecast layout! Learn more

10-Day Weather Forecast

Advertisements
Track Severe Weather on mobile